Time;durP1;ratioP1;P1;durP2;ratioP2;P2;SDS_P1;SDS_P2;PMS_P1;PMS_P2;Temp;Humidity;BMP_temperature;BMP_pressure;BME280_temperature;BME280_humidity;BME280_pressure;Samples;Min_cycle;Max_cycle;Signal;HPM_P1;HPM_P2
2022/05/03 00:00:05;;;;;;;8.97;6.90;;;;;;;;;;4967146;28;20573;-52
2022/05/03 00:02:43;;;;;;;7.77;6.97;;;;;;;;;;4969928;28;20564;-52
2022/05/03 00:05:11;;;;;;;8.00;6.53;;;;;;;;;;4969318;28;20624;-51
2022/05/03 00:07:44;;;;;;;9.27;7.00;;;;;;;;;;4967239;28;20686;-51
2022/05/03 00:10:14;;;;;;;10.00;7.33;;;;;;;;;;4967767;28;20201;-52
2022/05/03 00:12:41;;;;;;;11.53;7.53;;;;;;;;;;4967734;28;20191;-52
2022/05/03 00:15:07;;;;;;;7.93;7.13;;;;;;;;;;4969215;28;20198;-52
2022/05/03 00:17:33;;;;;;;7.07;6.37;;;;;;;;;;4961310;28;20198;-53
2022/05/03 00:19:59;;;;;;;9.43;6.57;;;;;;;;;;4958503;28;20213;-51
2022/05/03 00:22:25;;;;;;;9.10;7.13;;;;;;;;;;4971658;28;20726;-52
2022/05/03 00:24:54;;;;;;;8.70;7.50;;;;;;;;;;4967098;28;20186;-52
2022/05/03 00:27:21;;;;;;;8.53;6.67;;;;;;;;;;4971581;28;20232;-51
2022/05/03 00:29:47;;;;;;;8.83;6.90;;;;;;;;;;4962303;28;20671;-52
2022/05/03 00:32:13;;;;;;;7.50;6.77;;;;;;;;;;4966804;28;20282;-51
2022/05/03 00:34:39;;;;;;;7.43;6.70;;;;;;;;;;4962115;28;20215;-52
2022/05/03 00:37:05;;;;;;;7.60;6.77;;;;;;;;;;4967035;28;20214;-52
2022/05/03 00:39:31;;;;;;;7.50;6.33;;;;;;;;;;4962515;28;20741;-51
2022/05/03 00:42:12;;;;;;;8.27;6.67;;;;;;;;;;4964124;28;20734;-52
2022/05/03 00:45:00;;;;;;;7.70;6.47;;;;;;;;;;4966246;28;20591;-51
2022/05/03 00:47:30;;;;;;;8.50;6.63;;;;;;;;;;4959431;28;20501;-51
2022/05/03 00:50:06;;;;;;;7.93;6.67;;;;;;;;;;4966602;28;20272;-51
2022/05/03 00:52:51;;;;;;;8.87;6.43;;;;;;;;;;4961841;28;20189;-52
2022/05/03 00:55:38;;;;;;;7.27;6.50;;;;;;;;;;4968021;28;20210;-52
2022/05/03 00:58:19;;;;;;;11.60;6.67;;;;;;;;;;4974593;28;20194;-51
2022/05/03 01:00:54;;;;;;;8.73;6.80;;;;;;;;;;4965445;28;20746;-51
2022/05/03 01:03:26;;;;;;;10.27;6.37;;;;;;;;;;4969008;28;20632;-52
2022/05/03 01:06:04;;;;;;;7.73;6.33;;;;;;;;;;4967975;28;20198;-52
2022/05/03 01:08:33;;;;;;;8.60;6.73;;;;;;;;;;4969329;28;20238;-52
2022/05/03 01:11:07;;;;;;;7.03;6.17;;;;;;;;;;4965658;28;20252;-52
2022/05/03 01:13:37;;;;;;;9.77;6.30;;;;;;;;;;4968433;28;20201;-52
2022/05/03 01:16:04;;;;;;;8.33;6.40;;;;;;;;;;4964394;28;20198;-52
2022/05/03 01:18:30;;;;;;;7.80;7.00;;;;;;;;;;4966312;28;20229;-52
2022/05/03 01:21:05;;;;;;;7.80;6.50;;;;;;;;;;4966774;28;20198;-52
2022/05/03 01:23:53;;;;;;;7.40;6.43;;;;;;;;;;4965944;28;20190;-51
2022/05/03 01:26:25;;;;;;;8.07;6.80;;;;;;;;;;4964473;28;20213;-53
2022/05/03 01:28:54;;;;;;;6.73;6.00;;;;;;;;;;4971089;28;20666;-51
2022/05/03 01:31:19;;;;;;;6.77;5.87;;;;;;;;;;4958872;28;20731;-51
2022/05/03 01:33:45;;;;;;;8.33;6.00;;;;;;;;;;4965141;28;20190;-53
2022/05/03 01:36:11;;;;;;;7.70;6.33;;;;;;;;;;4966654;28;20198;-52
2022/05/03 01:38:51;;;;;;;7.07;5.87;;;;;;;;;;4968142;28;20218;-52
2022/05/03 01:41:23;;;;;;;7.60;5.80;;;;;;;;;;4953812;28;20711;-51
2022/05/03 01:43:52;;;;;;;6.43;5.83;;;;;;;;;;4963866;28;20191;-52
2022/05/03 01:46:25;;;;;;;8.63;5.80;;;;;;;;;;4964686;28;20198;-52
2022/05/03 01:52:06;;;;;;;6.90;6.20;;;;;;;;;;4963114;28;20304;-52
2022/05/03 01:54:56;;;;;;;8.20;6.00;;;;;;;;;;4966213;28;20538;-52
2022/05/03 01:57:22;;;;;;;7.87;6.13;;;;;;;;;;4962236;28;20179;-52
2022/05/03 02:00:03;;;;;;;8.13;7.07;;;;;;;;;;4962339;28;20265;-52
2022/05/03 02:02:48;;;;;;;8.70;6.77;;;;;;;;;;4966245;28;20633;-52
2022/05/03 02:05:20;;;;;;;6.67;5.73;;;;;;;;;;4965395;28;20194;-52
2022/05/03 02:07:50;;;;;;;9.03;6.17;;;;;;;;;;4964257;28;20261;-52
2022/05/03 02:10:19;;;;;;;6.00;5.40;;;;;;;;;;4967019;28;20194;-52
2022/05/03 02:12:46;;;;;;;7.53;6.43;;;;;;;;;;4964376;28;20657;-52
2022/05/03 02:15:12;;;;;;;8.57;5.70;;;;;;;;;;4967050;28;20194;-52
2022/05/03 02:17:48;;;;;;;7.47;5.93;;;;;;;;;;4960912;28;20653;-52
2022/05/03 02:20:27;;;;;;;6.37;5.33;;;;;;;;;;4968253;28;20222;-52
2022/05/03 02:23:12;;;;;;;7.47;6.20;;;;;;;;;;4960559;28;20194;-52
2022/05/03 02:25:57;;;;;;;6.50;5.80;;;;;;;;;;4967104;28;20190;-52
2022/05/03 02:28:26;;;;;;;5.87;5.27;;;;;;;;;;4967035;28;20190;-52
2022/05/03 02:30:52;;;;;;;7.20;5.63;;;;;;;;;;4965661;28;20728;-52
2022/05/03 02:33:29;;;;;;;9.20;6.27;;;;;;;;;;4958636;28;20687;-51
2022/05/03 02:35:56;;;;;;;7.77;5.70;;;;;;;;;;4967371;28;20330;-52
2022/05/03 02:38:25;;;;;;;6.13;5.07;;;;;;;;;;4964285;28;20578;-52
2022/05/03 02:40:52;;;;;;;7.73;5.67;;;;;;;;;;4953993;28;20191;-52
2022/05/03 02:43:18;;;;;;;7.50;5.67;;;;;;;;;;4963707;28;20205;-52
2022/05/03 02:45:48;;;;;;;9.93;6.50;;;;;;;;;;4963308;28;20190;-52
2022/05/03 02:48:14;;;;;;;7.50;5.83;;;;;;;;;;4962959;28;20191;-52
2022/05/03 02:50:56;;;;;;;6.27;5.67;;;;;;;;;;4965680;28;20182;-52
2022/05/03 02:53:40;;;;;;;6.60;5.70;;;;;;;;;;4969257;28;20186;-52
2022/05/03 02:56:08;;;;;;;8.63;6.00;;;;;;;;;;4965621;28;20248;-52
2022/05/03 02:58:37;;;;;;;8.47;6.10;;;;;;;;;;4962406;28;20679;-52
2022/05/03 03:04:18;;;;;;;6.50;5.37;;;;;;;;;;4961389;28;20192;-52
2022/05/03 03:06:44;;;;;;;9.17;5.70;;;;;;;;;;4951588;28;20301;-52
2022/05/03 03:09:10;;;;;;;7.27;6.13;;;;;;;;;;4960142;28;20198;-52
2022/05/03 03:11:38;;;;;;;6.40;5.70;;;;;;;;;;4968347;28;20201;-52
2022/05/03 03:14:40;;;;;;;6.90;6.20;;;;;;;;;;4962780;28;20197;-52
2022/05/03 03:17:06;;;;;;;7.90;5.93;;;;;;;;;;4910901;29;20203;-52
2022/05/03 03:19:38;;;;;;;7.37;5.37;;;;;;;;;;4952298;28;20226;-52
2022/05/03 03:22:08;;;;;;;6.90;5.83;;;;;;;;;;4970747;28;20385;-52
2022/05/03 03:24:35;;;;;;;7.07;5.90;;;;;;;;;;4964328;28;20193;-52
2022/05/03 03:27:01;;;;;;;9.97;6.10;;;;;;;;;;4966570;28;20574;-52
2022/05/03 03:29:27;;;;;;;9.20;6.50;;;;;;;;;;4962731;28;20194;-52
2022/05/03 03:31:54;;;;;;;7.27;6.57;;;;;;;;;;4966298;28;20205;-52
2022/05/03 03:34:20;;;;;;;7.23;5.83;;;;;;;;;;4968045;28;20240;-51
2022/05/03 03:36:46;;;;;;;8.00;6.27;;;;;;;;;;4966495;28;20211;-52
2022/05/03 03:39:12;;;;;;;6.30;5.70;;;;;;;;;;4960035;28;20309;-52
2022/05/03 03:41:38;;;;;;;8.90;6.30;;;;;;;;;;4965691;28;20214;-52
2022/05/03 03:44:05;;;;;;;7.20;6.20;;;;;;;;;;4959231;28;20245;-52
2022/05/03 03:46:32;;;;;;;7.57;6.77;;;;;;;;;;4966656;28;21905;-52
2022/05/03 03:48:57;;;;;;;8.90;7.30;;;;;;;;;;4963562;28;20190;-52
2022/05/03 03:51:23;;;;;;;9.80;7.10;;;;;;;;;;4964673;28;20214;-52
2022/05/03 03:53:49;;;;;;;11.43;7.30;;;;;;;;;;4965948;28;20198;-51
2022/05/03 03:56:15;;;;;;;8.20;7.40;;;;;;;;;;4963392;28;20197;-52
2022/05/03 03:58:41;;;;;;;7.93;7.13;;;;;;;;;;4963747;28;20669;-52
2022/05/03 04:01:09;;;;;;;9.27;7.80;;;;;;;;;;4954848;28;20575;-52
2022/05/03 04:03:36;;;;;;;8.10;7.30;;;;;;;;;;4961935;28;20183;-52
2022/05/03 04:06:02;;;;;;;9.60;6.90;;;;;;;;;;4965994;28;20751;-51
2022/05/03 04:08:28;;;;;;;8.03;7.10;;;;;;;;;;4971551;28;20321;-51
2022/05/03 04:10:54;;;;;;;8.90;7.60;;;;;;;;;;4967825;28;20188;-52
2022/05/03 04:13:20;;;;;;;9.67;7.90;;;;;;;;;;4972228;28;20195;-52
2022/05/03 04:15:46;;;;;;;12.70;8.17;;;;;;;;;;4958523;28;20201;-51
2022/05/03 04:18:12;;;;;;;8.93;7.53;;;;;;;;;;4967948;28;20554;-52
2022/05/03 04:20:38;;;;;;;9.23;7.67;;;;;;;;;;4963812;28;20191;-51
2022/05/03 04:23:04;;;;;;;8.50;7.57;;;;;;;;;;4964569;28;20190;-52
2022/05/03 04:25:31;;;;;;;9.27;8.10;;;;;;;;;;4964005;28;20720;-51
2022/05/03 04:27:57;;;;;;;12.43;7.90;;;;;;;;;;4956298;28;20671;-52
2022/05/03 04:30:23;;;;;;;9.90;7.83;;;;;;;;;;4961974;28;20214;-52
2022/05/03 04:32:49;;;;;;;9.30;7.73;;;;;;;;;;4953078;28;20652;-52
2022/05/03 04:35:15;;;;;;;9.60;8.23;;;;;;;;;;4962829;28;20202;-52
2022/05/03 04:37:41;;;;;;;8.97;7.57;;;;;;;;;;4956754;28;20588;-52
2022/05/03 04:40:07;;;;;;;9.00;7.83;;;;;;;;;;4964222;28;20676;-52
2022/05/03 04:42:33;;;;;;;8.07;7.27;;;;;;;;;;4970783;28;20198;-52
2022/05/03 04:44:59;;;;;;;11.70;7.80;;;;;;;;;;4971321;28;20191;-52
2022/05/03 04:47:25;;;;;;;9.90;8.10;;;;;;;;;;4970673;28;20520;-52
2022/05/03 04:49:51;;;;;;;8.83;7.90;;;;;;;;;;4971967;28;20783;-52
2022/05/03 04:52:17;;;;;;;9.83;8.77;;;;;;;;;;4964779;28;20273;-52
2022/05/03 04:54:43;;;;;;;14.73;7.90;;;;;;;;;;4942761;28;20603;-52
2022/05/03 04:57:09;;;;;;;8.97;8.07;;;;;;;;;;4957741;28;20198;-52
2022/05/03 04:59:36;;;;;;;10.43;8.03;;;;;;;;;;4963056;28;20478;-51
2022/05/03 05:02:02;;;;;;;12.37;8.00;;;;;;;;;;4948858;28;21050;-51
2022/05/03 05:04:28;;;;;;;9.87;8.27;;;;;;;;;;4958423;28;20191;-50
2022/05/03 05:06:54;;;;;;;10.70;7.93;;;;;;;;;;4960419;28;20591;-50
2022/05/03 05:09:20;;;;;;;10.27;8.13;;;;;;;;;;4956202;28;20187;-50
2022/05/03 05:11:46;;;;;;;10.20;8.10;;;;;;;;;;4959546;28;20789;-50
2022/05/03 05:14:12;;;;;;;9.83;8.20;;;;;;;;;;4962940;28;20199;-51
2022/05/03 05:16:38;;;;;;;8.57;7.03;;;;;;;;;;4957042;28;20194;-52
2022/05/03 05:19:04;;;;;;;11.27;7.47;;;;;;;;;;4962150;28;20296;-51
2022/05/03 05:21:30;;;;;;;8.27;7.40;;;;;;;;;;4959352;28;20186;-52
2022/05/03 05:23:55;;;;;;;11.73;8.37;;;;;;;;;;4967100;28;20250;-49
2022/05/03 05:26:22;;;;;;;10.73;9.60;;;;;;;;;;4972424;28;20189;-50
2022/05/03 05:28:48;;;;;;;10.77;9.67;;;;;;;;;;4965134;28;20230;-49
2022/05/03 05:31:15;;;;;;;10.90;9.40;;;;;;;;;;4960906;28;20325;-49
2022/05/03 05:33:40;;;;;;;10.73;9.07;;;;;;;;;;4967642;28;20273;-50
2022/05/03 05:36:07;;;;;;;9.70;8.50;;;;;;;;;;4971181;28;20213;-49
2022/05/03 05:38:33;;;;;;;10.07;8.30;;;;;;;;;;4970877;28;20222;-50
2022/05/03 05:40:59;;;;;;;13.23;9.70;;;;;;;;;;4963167;28;20747;-50
2022/05/03 05:43:24;;;;;;;10.83;9.23;;;;;;;;;;4961430;28;20183;-50
2022/05/03 05:45:50;;;;;;;11.97;8.50;;;;;;;;;;4966165;28;20241;-49
2022/05/03 05:48:16;;;;;;;11.93;9.23;;;;;;;;;;4971790;28;20649;-49
2022/05/03 05:50:42;;;;;;;9.77;8.77;;;;;;;;;;4965069;28;20256;-50
2022/05/03 05:55:53;;;;;;;11.50;8.23;;;;;;;;;;4963024;28;21735;-49
2022/05/03 05:58:19;;;;;;;15.30;8.90;;;;;;;;;;4966730;28;20368;-50
2022/05/03 06:00:45;;;;;;;10.53;8.50;;;;;;;;;;4965246;28;20190;-50
2022/05/03 06:03:11;;;;;;;10.20;8.80;;;;;;;;;;4970305;28;20277;-49
2022/05/03 06:05:37;;;;;;;11.30;9.53;;;;;;;;;;4967351;28;20282;-49
2022/05/03 06:08:03;;;;;;;11.50;9.40;;;;;;;;;;4965322;28;20238;-49
2022/05/03 06:10:29;;;;;;;10.20;8.90;;;;;;;;;;4960347;28;20194;-49
2022/05/03 06:12:56;;;;;;;10.40;9.07;;;;;;;;;;4956724;28;20679;-51
2022/05/03 06:15:22;;;;;;;10.73;9.27;;;;;;;;;;4961786;28;20748;-51
2022/05/03 06:17:48;;;;;;;11.63;8.60;;;;;;;;;;4958459;28;20684;-52
2022/05/03 06:20:14;;;;;;;12.90;8.33;;;;;;;;;;4969882;28;20213;-52
2022/05/03 06:22:40;;;;;;;11.03;8.80;;;;;;;;;;4960500;28;20197;-52
2022/05/03 06:25:10;;;;;;;10.60;8.43;;;;;;;;;;4966309;28;20197;-51
2022/05/03 06:27:36;;;;;;;11.10;8.60;;;;;;;;;;4960045;28;20633;-51
2022/05/03 06:30:03;;;;;;;10.67;8.37;;;;;;;;;;4962798;28;20229;-51
2022/05/03 06:32:29;;;;;;;9.57;8.57;;;;;;;;;;4969302;28;20325;-51
2022/05/03 06:34:55;;;;;;;11.60;8.73;;;;;;;;;;4969892;28;20239;-49
2022/05/03 06:37:21;;;;;;;11.03;8.47;;;;;;;;;;4970173;28;20607;-50
2022/05/03 06:39:47;;;;;;;9.73;8.60;;;;;;;;;;4968420;28;20684;-52
2022/05/03 06:42:14;;;;;;;12.20;8.70;;;;;;;;;;4964360;28;20688;-51
2022/05/03 06:44:40;;;;;;;8.50;7.63;;;;;;;;;;4965484;28;20545;-51
2022/05/03 06:47:07;;;;;;;8.97;7.63;;;;;;;;;;4960172;28;20628;-52
2022/05/03 06:49:33;;;;;;;11.97;7.43;;;;;;;;;;4965486;28;20202;-52
2022/05/03 06:51:59;;;;;;;11.40;7.60;;;;;;;;;;4960885;28;20198;-52
2022/05/03 06:54:25;;;;;;;10.03;7.13;;;;;;;;;;4965139;28;20187;-51
2022/05/03 06:56:51;;;;;;;9.13;6.80;;;;;;;;;;4963531;28;20296;-51
2022/05/03 06:59:17;;;;;;;8.90;6.97;;;;;;;;;;4966979;28;20301;-50
2022/05/03 07:01:43;;;;;;;10.10;7.13;;;;;;;;;;4956429;28;20237;-51
2022/05/03 07:04:09;;;;;;;10.17;7.20;;;;;;;;;;4965728;28;20277;-52
2022/05/03 07:06:35;;;;;;;9.47;6.87;;;;;;;;;;4965826;28;20234;-51
2022/05/03 07:09:04;;;;;;;7.83;7.03;;;;;;;;;;4970219;28;20293;-51
2022/05/03 07:11:29;;;;;;;8.27;6.27;;;;;;;;;;4964870;28;20197;-51
2022/05/03 07:13:56;;;;;;;12.20;6.30;;;;;;;;;;4965159;28;20206;-49
2022/05/03 07:16:22;;;;;;;6.93;5.80;;;;;;;;;;4964220;28;20314;-52
2022/05/03 07:24:17;;;;;;;9.53;6.07;;;;;;;;;;4966814;28;20197;-51
2022/05/03 07:26:44;;;;;;;10.03;6.13;;;;;;;;;;4968857;28;20562;-51
2022/05/03 07:29:10;;;;;;;7.47;5.57;;;;;;;;;;4971922;28;20246;-48
2022/05/03 07:31:41;;;;;;;10.10;5.87;;;;;;;;;;4971486;28;20187;-49
2022/05/03 07:34:07;;;;;;;6.77;6.17;;;;;;;;;;4969679;28;20201;-49
2022/05/03 07:36:33;;;;;;;9.00;6.20;;;;;;;;;;4965290;28;20194;-49
2022/05/03 07:38:59;;;;;;;6.43;5.77;;;;;;;;;;4968844;28;20561;-50
2022/05/03 07:41:25;;;;;;;6.30;5.17;;;;;;;;;;4971399;28;20214;-50
2022/05/03 07:43:51;;;;;;;7.73;6.13;;;;;;;;;;4971095;28;20194;-50
2022/05/03 07:46:17;;;;;;;9.90;6.43;;;;;;;;;;4971229;28;20182;-49
2022/05/03 07:48:43;;;;;;;7.20;5.50;;;;;;;;;;4974786;28;21099;-49
2022/05/03 07:51:11;;;;;;;8.77;5.70;;;;;;;;;;4968158;28;20232;-49
2022/05/03 07:53:37;;;;;;;10.00;5.57;;;;;;;;;;4975920;28;20187;-49
2022/05/03 07:56:03;;;;;;;6.87;6.07;;;;;;;;;;4975858;28;20199;-50
2022/05/03 07:58:29;;;;;;;8.40;5.67;;;;;;;;;;4975843;28;20218;-50
2022/05/03 08:00:55;;;;;;;7.53;5.70;;;;;;;;;;4973905;28;20197;-49
2022/05/03 08:03:21;;;;;;;7.60;5.30;;;;;;;;;;4969186;28;20192;-51
2022/05/03 08:05:47;;;;;;;8.13;5.40;;;;;;;;;;4966636;28;20190;-50
2022/05/03 08:08:13;;;;;;;10.43;5.20;;;;;;;;;;4973372;28;20230;-51
2022/05/03 08:10:39;;;;;;;8.00;5.43;;;;;;;;;;4974714;28;20293;-50
2022/05/03 08:13:05;;;;;;;9.10;5.57;;;;;;;;;;4970511;28;20186;-50
2022/05/03 08:15:31;;;;;;;6.90;5.60;;;;;;;;;;4970218;28;20232;-50
2022/05/03 08:17:57;;;;;;;7.70;5.40;;;;;;;;;;4964646;28;20261;-51
2022/05/03 08:20:23;;;;;;;6.23;5.20;;;;;;;;;;4959026;28;20246;-50
2022/05/03 08:22:49;;;;;;;5.80;5.17;;;;;;;;;;4964562;28;20210;-50
2022/05/03 08:25:15;;;;;;;7.23;5.87;;;;;;;;;;4957512;28;20198;-55
2022/05/03 08:27:41;;;;;;;6.40;5.60;;;;;;;;;;4964046;28;20197;-55
2022/05/03 08:30:07;;;;;;;6.57;5.60;;;;;;;;;;4960909;28;20201;-55
2022/05/03 08:32:33;;;;;;;8.23;5.40;;;;;;;;;;4967928;28;20199;-54
2022/05/03 08:34:59;;;;;;;8.57;5.97;;;;;;;;;;4960818;28;20190;-54
2022/05/03 08:42:55;;;;;;;6.10;5.37;;;;;;;;;;4965631;28;20225;-54
2022/05/03 08:45:21;;;;;;;7.10;5.00;;;;;;;;;;4968844;28;20198;-54
2022/05/03 08:47:47;;;;;;;7.13;5.03;;;;;;;;;;4962926;28;20200;-54
2022/05/03 08:50:13;;;;;;;10.57;5.30;;;;;;;;;;4968141;28;20191;-55
2022/05/03 08:52:43;;;;;;;5.20;4.67;;;;;;;;;;4965091;28;20694;-55
2022/05/03 08:55:09;;;;;;;4.77;4.33;;;;;;;;;;4967613;28;20187;-55
2022/05/03 08:57:35;;;;;;;7.10;4.83;;;;;;;;;;4965285;28;20632;-55
2022/05/03 09:00:04;;;;;;;6.87;4.47;;;;;;;;;;4969415;28;20257;-55
2022/05/03 09:02:31;;;;;;;7.43;4.33;;;;;;;;;;4967136;28;20957;-54
2022/05/03 09:04:57;;;;;;;6.47;5.10;;;;;;;;;;4974334;28;20595;-55
2022/05/03 09:07:24;;;;;;;5.03;4.53;;;;;;;;;;4969108;28;20281;-55
2022/05/03 09:09:51;;;;;;;5.20;4.70;;;;;;;;;;4969384;28;20249;-54
2022/05/03 09:12:30;;;;;;;5.43;4.87;;;;;;;;;;4969853;28;20222;-55
2022/05/03 09:14:57;;;;;;;5.70;4.57;;;;;;;;;;4962944;28;20200;-54
2022/05/03 09:17:35;;;;;;;6.23;4.80;;;;;;;;;;4969072;28;20197;-55
2022/05/03 09:23:46;;;;;;;8.87;4.30;;;;;;;;;;4973455;28;20745;-55
2022/05/03 09:25:35;;;;;;;5.23;4.37;;;;;;;;;;4971193;28;20254;-55
2022/05/03 09:28:07;;;;;;;9.83;4.10;;;;;;;;;;4968341;28;20269;-55
2022/05/03 09:30:33;;;;;;;4.70;4.13;;;;;;;;;;4967725;28;20281;-55
2022/05/03 09:32:59;;;;;;;5.70;3.65;;;;;;;;;;4971692;28;20194;-55
2022/05/03 09:35:31;;;;;;;8.40;3.73;;;;;;;;;;4972584;28;20225;-56
2022/05/03 09:37:57;;;;;;;6.47;4.43;;;;;;;;;;4965245;28;20277;-55
2022/05/03 09:40:25;;;;;;;4.30;3.70;;;;;;;;;;4944195;28;20630;-55
2022/05/03 09:42:51;;;;;;;5.60;3.88;;;;;;;;;;4954950;28;20183;-55
2022/05/03 09:45:20;;;;;;;5.72;4.15;;;;;;;;;;4954432;28;20898;-55
2022/05/03 09:47:53;;;;;;;7.10;4.15;;;;;;;;;;4968621;28;20190;-55
2022/05/03 09:50:27;;;;;;;8.48;4.05;;;;;;;;;;4963501;28;20675;-55
2022/05/03 09:52:53;;;;;;;6.85;4.78;;;;;;;;;;4959241;28;20903;-55
2022/05/03 09:55:32;;;;;;;6.07;3.95;;;;;;;;;;4961646;28;20284;-55
2022/05/03 09:58:02;;;;;;;5.00;4.10;;;;;;;;;;4964765;28;20273;-55
2022/05/03 10:00:28;;;;;;;6.30;4.10;;;;;;;;;;4956932;28;20209;-55
2022/05/03 10:02:54;;;;;;;7.60;4.30;;;;;;;;;;4962265;28;20182;-55
2022/05/03 10:05:21;;;;;;;7.50;4.45;;;;;;;;;;4961694;28;20771;-55
2022/05/03 10:07:47;;;;;;;6.65;4.68;;;;;;;;;;4962163;28;20272;-55
2022/05/03 10:10:14;;;;;;;6.00;4.70;;;;;;;;;;4969922;28;20193;-55
2022/05/03 10:12:41;;;;;;;6.63;4.38;;;;;;;;;;4967822;28;20191;-54
2022/05/03 10:15:07;;;;;;;4.65;4.00;;;;;;;;;;4962059;28;20201;-55
2022/05/03 10:20:39;;;;;;;4.63;4.22;;;;;;;;;;4965994;28;20708;-55
2022/05/03 10:23:19;;;;;;;6.13;3.92;;;;;;;;;;4964582;28;20182;-55
2022/05/03 10:25:47;;;;;;;4.95;4.32;;;;;;;;;;4961966;28;20182;-55
2022/05/03 10:28:13;;;;;;;9.60;4.93;;;;;;;;;;4968345;28;20268;-54
2022/05/03 10:30:40;;;;;;;7.80;4.57;;;;;;;;;;4968782;28;20191;-54
2022/05/03 10:33:21;;;;;;;6.28;4.72;;;;;;;;;;4970371;28;20191;-55
2022/05/03 10:35:47;;;;;;;7.40;5.38;;;;;;;;;;4968703;28;20194;-55
2022/05/03 10:38:13;;;;;;;6.50;5.10;;;;;;;;;;4970406;28;20226;-54
2022/05/03 10:40:43;;;;;;;7.72;5.25;;;;;;;;;;4968115;28;20218;-55
2022/05/03 10:43:10;;;;;;;6.30;4.65;;;;;;;;;;4964284;28;20195;-55
2022/05/03 10:45:49;;;;;;;6.50;4.85;;;;;;;;;;4969288;28;20771;-54
2022/05/03 10:48:30;;;;;;;5.88;5.30;;;;;;;;;;4965269;28;20189;-54
2022/05/03 10:50:58;;;;;;;8.27;5.47;;;;;;;;;;4968513;28;20187;-54
2022/05/03 10:53:25;;;;;;;9.32;5.30;;;;;;;;;;4964716;28;20194;-54
2022/05/03 10:56:12;;;;;;;5.68;5.00;;;;;;;;;;4970703;28;20567;-54
2022/05/03 10:58:39;;;;;;;12.27;5.72;;;;;;;;;;4968393;28;20206;-54
2022/05/03 11:01:05;;;;;;;7.38;5.18;;;;;;;;;;4966341;28;20186;-55
2022/05/03 11:03:31;;;;;;;7.28;5.10;;;;;;;;;;4946138;28;20190;-55
2022/05/03 11:06:19;;;;;;;7.63;5.05;;;;;;;;;;4955078;28;20194;-55
2022/05/03 11:11:35;;;;;;;9.98;4.97;;;;;;;;;;4954239;28;20599;-55
2022/05/03 11:14:01;;;;;;;5.15;4.55;;;;;;;;;;4959938;28;20182;-55
2022/05/03 11:16:34;;;;;;;6.78;5.28;;;;;;;;;;4967936;28;20558;-54
2022/05/03 11:19:00;;;;;;;6.53;4.82;;;;;;;;;;4964315;28;20724;-55
2022/05/03 11:21:26;;;;;;;7.47;5.30;;;;;;;;;;4970070;28;20277;-54
2022/05/03 11:23:53;;;;;;;7.20;5.28;;;;;;;;;;4970770;28;20194;-55
2022/05/03 11:26:19;;;;;;;5.60;5.10;;;;;;;;;;4973459;28;20210;-55
2022/05/03 11:28:47;;;;;;;6.45;4.75;;;;;;;;;;4966590;28;20190;-55
2022/05/03 11:31:13;;;;;;;10.40;5.35;;;;;;;;;;4964583;28;20218;-54
2022/05/03 11:33:51;;;;;;;6.60;5.70;;;;;;;;;;4965483;28;20198;-55
2022/05/03 11:36:18;;;;;;;7.32;5.18;;;;;;;;;;4965892;28;20238;-54
2022/05/03 11:38:43;;;;;;;9.00;5.43;;;;;;;;;;4964109;28;20214;-55
2022/05/03 11:41:10;;;;;;;7.03;5.82;;;;;;;;;;4966328;28;20191;-54
2022/05/03 11:43:36;;;;;;;9.85;6.40;;;;;;;;;;4969094;28;20179;-55
2022/05/03 11:46:02;;;;;;;8.07;5.35;;;;;;;;;;4970860;28;20206;-55
2022/05/03 11:48:28;;;;;;;5.85;5.25;;;;;;;;;;4964517;28;20199;-54
2022/05/03 11:56:26;;;;;;;6.18;5.50;;;;;;;;;;4962585;28;20233;-55
2022/05/03 11:58:54;;;;;;;6.28;5.38;;;;;;;;;;4965678;28;20199;-55
2022/05/03 12:01:20;;;;;;;5.60;5.10;;;;;;;;;;4958056;28;20679;-54
2022/05/03 12:03:50;;;;;;;8.73;5.50;;;;;;;;;;4959475;28;22977;-54
2022/05/03 12:06:16;;;;;;;5.93;5.18;;;;;;;;;;4967973;28;20214;-55
2022/05/03 12:08:42;;;;;;;6.32;5.72;;;;;;;;;;4967697;28;20238;-55
2022/05/03 12:11:21;;;;;;;8.80;4.93;;;;;;;;;;4966445;28;20195;-54
2022/05/03 12:13:47;;;;;;;7.43;5.32;;;;;;;;;;4956260;28;20183;-56
2022/05/03 12:16:16;;;;;;;5.53;4.70;;;;;;;;;;4964732;28;20623;-55
2022/05/03 12:18:48;;;;;;;8.80;6.20;;;;;;;;;;4964769;28;20254;-55
2022/05/03 12:21:18;;;;;;;6.97;4.38;;;;;;;;;;4962305;28;20359;-55
2022/05/03 12:23:45;;;;;;;6.78;5.05;;;;;;;;;;4966461;28;20187;-55
2022/05/03 12:26:19;;;;;;;7.43;5.22;;;;;;;;;;4957387;28;20187;-54
2022/05/03 12:28:45;;;;;;;8.27;5.35;;;;;;;;;;4953238;28;21194;-55
2022/05/03 12:31:12;;;;;;;7.18;5.50;;;;;;;;;;4964940;28;20200;-55
2022/05/03 12:33:50;;;;;;;6.78;4.97;;;;;;;;;;4960472;28;20175;-55
2022/05/03 12:36:28;;;;;;;7.38;4.72;;;;;;;;;;4957260;28;20222;-54
2022/05/03 12:38:54;;;;;;;7.13;5.00;;;;;;;;;;4949926;28;20570;-55
2022/05/03 12:41:24;;;;;;;7.57;5.20;;;;;;;;;;4961138;28;20205;-55
2022/05/03 12:44:03;;;;;;;6.43;4.72;;;;;;;;;;4966282;28;20191;-54
2022/05/03 12:46:29;;;;;;;8.38;5.38;;;;;;;;;;4963611;28;20254;-54
2022/05/03 12:48:55;;;;;;;9.30;5.20;;;;;;;;;;4960737;28;20245;-54
2022/05/03 12:51:21;;;;;;;7.90;5.38;;;;;;;;;;4967754;28;20794;-53
2022/05/03 12:53:48;;;;;;;8.80;5.00;;;;;;;;;;4968596;28;20192;-53
2022/05/03 12:58:59;;;;;;;8.25;4.88;;;;;;;;;;4959378;28;20233;-54
2022/05/03 13:01:25;;;;;;;7.75;5.18;;;;;;;;;;4957823;28;21241;-53
2022/05/03 13:03:51;;;;;;;10.60;5.22;;;;;;;;;;4961807;28;20564;-54
2022/05/03 13:06:17;;;;;;;9.85;5.00;;;;;;;;;;4939295;28;20966;-53
2022/05/03 13:08:43;;;;;;;7.68;5.50;;;;;;;;;;4950379;28;20238;-53
2022/05/03 13:11:10;;;;;;;7.75;5.00;;;;;;;;;;4962221;28;20270;-53
2022/05/03 13:13:36;;;;;;;10.27;5.78;;;;;;;;;;4958957;28;20324;-53
2022/05/03 13:16:02;;;;;;;9.13;5.95;;;;;;;;;;4956091;28;20209;-52
2022/05/03 13:18:28;;;;;;;7.15;5.25;;;;;;;;;;4966536;28;20210;-53
2022/05/03 13:20:54;;;;;;;9.10;5.70;;;;;;;;;;4962585;28;20198;-53
2022/05/03 13:23:20;;;;;;;6.70;5.20;;;;;;;;;;4957891;28;20204;-53
2022/05/03 13:25:46;;;;;;;7.28;5.22;;;;;;;;;;4961528;28;20199;-53
2022/05/03 13:28:12;;;;;;;5.97;4.57;;;;;;;;;;4964781;28;20830;-53
2022/05/03 13:30:38;;;;;;;11.13;5.50;;;;;;;;;;4954302;28;20194;-53
2022/05/03 13:33:04;;;;;;;7.72;5.47;;;;;;;;;;4964596;28;20306;-54
2022/05/03 13:41:19;;;;;;;10.88;5.18;;;;;;;;;;4966923;28;20190;-54
2022/05/03 13:43:47;;;;;;;9.05;4.90;;;;;;;;;;4961966;28;20679;-54
2022/05/03 13:46:13;;;;;;;10.50;5.10;;;;;;;;;;4966300;28;20182;-54
2022/05/03 13:48:39;;;;;;;6.45;4.75;;;;;;;;;;4963570;28;20266;-54
2022/05/03 13:51:05;;;;;;;5.88;4.45;;;;;;;;;;4963722;28;20196;-54
2022/05/03 13:53:31;;;;;;;6.25;4.78;;;;;;;;;;4971402;28;20249;-54
2022/05/03 13:55:58;;;;;;;7.88;5.47;;;;;;;;;;4958796;28;20202;-54
2022/05/03 13:58:24;;;;;;;6.93;5.55;;;;;;;;;;4961872;28;20365;-54
2022/05/03 14:00:50;;;;;;;8.63;5.18;;;;;;;;;;4965710;28;20652;-54
2022/05/03 14:03:16;;;;;;;7.53;4.80;;;;;;;;;;4960779;28;20194;-54
2022/05/03 14:05:45;;;;;;;12.60;4.78;;;;;;;;;;4956119;28;20358;-54
2022/05/03 14:08:13;;;;;;;6.05;4.93;;;;;;;;;;4966349;28;20230;-53
2022/05/03 14:10:42;;;;;;;8.25;4.85;;;;;;;;;;4964168;28;20197;-54
2022/05/03 14:13:08;;;;;;;5.32;4.63;;;;;;;;;;4958863;28;20752;-53
2022/05/03 14:15:34;;;;;;;6.53;5.10;;;;;;;;;;4961208;28;20197;-53
2022/05/03 14:18:00;;;;;;;7.55;4.85;;;;;;;;;;4968674;28;20557;-53
2022/05/03 14:20:27;;;;;;;6.50;4.30;;;;;;;;;;4967333;28;20250;-53
2022/05/03 14:22:53;;;;;;;8.77;4.75;;;;;;;;;;4962685;28;20186;-54
2022/05/03 14:25:21;;;;;;;7.10;4.70;;;;;;;;;;4965370;28;20214;-53
2022/05/03 14:27:47;;;;;;;7.13;4.45;;;;;;;;;;4957544;28;22652;-53
2022/05/03 14:30:13;;;;;;;6.00;5.07;;;;;;;;;;4962173;28;20198;-55
2022/05/03 14:32:39;;;;;;;5.95;4.47;;;;;;;;;;4964254;28;20186;-54
2022/05/03 14:35:08;;;;;;;6.28;4.40;;;;;;;;;;4963987;28;20211;-55
2022/05/03 14:37:34;;;;;;;4.45;3.85;;;;;;;;;;4967405;28;20540;-54
2022/05/03 14:40:01;;;;;;;5.18;4.68;;;;;;;;;;4970949;28;20517;-54
2022/05/03 14:42:27;;;;;;;8.63;4.97;;;;;;;;;;4959334;28;20214;-53
2022/05/03 14:44:53;;;;;;;8.15;4.43;;;;;;;;;;4961189;28;20277;-54
2022/05/03 14:47:19;;;;;;;11.27;5.25;;;;;;;;;;4949321;28;20303;-54
2022/05/03 14:49:45;;;;;;;7.47;4.50;;;;;;;;;;4959514;28;20198;-54
2022/05/03 14:52:13;;;;;;;14.90;4.88;;;;;;;;;;4960982;28;20268;-53
2022/05/03 14:54:39;;;;;;;5.30;4.35;;;;;;;;;;4962833;28;20213;-53
2022/05/03 15:05:24;;;;;;;5.82;4.90;;;;;;;;;;4959396;28;20192;-53
2022/05/03 15:07:50;;;;;;;7.70;4.93;;;;;;;;;;4953089;28;20590;-53
2022/05/03 15:10:16;;;;;;;6.47;4.72;;;;;;;;;;4960887;28;20209;-52
2022/05/03 15:12:45;;;;;;;6.20;5.20;;;;;;;;;;4963195;28;20218;-52
2022/05/03 15:15:12;;;;;;;5.88;4.80;;;;;;;;;;4958942;28;20202;-52
2022/05/03 15:17:38;;;;;;;9.02;4.80;;;;;;;;;;4962476;28;20345;-52
2022/05/03 15:20:05;;;;;;;5.60;5.00;;;;;;;;;;4966222;28;20272;-52
2022/05/03 15:25:15;;;;;;;5.20;4.70;;;;;;;;;;4962371;28;20620;-52
2022/05/03 15:27:41;;;;;;;5.35;4.85;;;;;;;;;;4967971;28;20194;-52
2022/05/03 15:30:07;;;;;;;4.63;4.22;;;;;;;;;;4950379;28;20558;-53
2022/05/03 15:32:35;;;;;;;5.07;4.57;;;;;;;;;;4962748;28;20596;-52
2022/05/03 15:35:04;;;;;;;5.53;4.60;;;;;;;;;;4970609;28;20237;-53
2022/05/03 15:37:33;;;;;;;5.82;4.78;;;;;;;;;;4962119;28;20611;-53
2022/05/03 15:39:59;;;;;;;6.15;4.18;;;;;;;;;;4960443;28;20218;-53